Hlavní strana
METAR-TAF:

METAR-TAF

Letiště :

Letiště Žilina

Žilina, Slovensko

zeměpisná šířka: 49-14N, zeměpisná délka: 018-36-49E, výška: 312 m

Aktuální stav počasí

Zpráva byla vytvořena před 10 minutami, v 07:48 UTC
Východní vítr 3 kt, proměnlivý mezi severním a jihojihovýchodním
Teplota 19°C
Vlhkost vzduchu 73%
Tlak 1022 hPa
Viditelnost 10 km a více
Žádná oblačnost pod 1500 m, nevyskytují se cumulonimby.

METAR: LZZI 260748Z 08003KT 360V160 CAVOK 19/14 Q1022

Čas: 09:58 (07:58 UTC)


TAF: chybějící

Stav a předpovědi počasí z více než 4 000 letišť (zprávy METAR a TAF).

Červené a žluté tečky na mapě představují dostupné meteorologické stanice.

Když kurzor umístíte na tečku, zobrazí se název stanice.

Pak kliknutím zobrazíte stav a předpověď počasí.

Chcete-li změnit mapu, kliknutím na zelené tlačítko se znaménkem +mapu přiblížíte, kliknutím na zelené tlačítko se znaménkem – mapu oddálíte a kliknutím na zelené šipky přejdete na sousední mapy.


METAR-TAF: